Time;durP1;ratioP1;P1;durP2;ratioP2;P2;SDS_P1;SDS_P2;PMS_P1;PMS_P2;Temp;Humidity;BMP_temperature;BMP_pressure;BME280_temperature;BME280_humidity;BME280_pressure;Samples;Min_cycle;Max_cycle;Signal;HPM_P1;HPM_P2
2023/06/08 00:00:50;;;;;;;17.30;10.43;;;11.20;99.90;;;;;;6210064;23;20020;-40
2023/06/08 00:03:18;;;;;;;14.57;10.82;;;11.10;99.90;;;;;;6209576;23;20091;-42
2023/06/08 00:05:50;;;;;;;19.73;10.55;;;11.10;99.90;;;;;;6210616;23;20020;-41
2023/06/08 00:08:15;;;;;;;22.88;10.98;;;11.10;99.90;;;;;;6210654;23;20017;-41
2023/06/08 00:10:42;;;;;;;20.60;10.68;;;11.00;99.90;;;;;;6210985;23;20140;-40
2023/06/08 00:13:08;;;;;;;20.42;11.65;;;11.00;99.90;;;;;;6210871;23;20020;-42
2023/06/08 00:15:34;;;;;;;19.40;10.93;;;11.00;99.90;;;;;;6210980;23;20013;-41
2023/06/08 00:18:02;;;;;;;17.55;10.13;;;11.00;99.90;;;;;;6212024;23;20016;-40
2023/06/08 00:20:28;;;;;;;21.92;11.88;;;11.00;99.90;;;;;;6211066;23;20016;-40
2023/06/08 00:22:56;;;;;;;21.38;11.63;;;11.00;99.90;;;;;;6211220;23;20079;-40
2023/06/08 00:25:22;;;;;;;17.63;11.20;;;11.00;99.90;;;;;;6214192;23;20023;-40
2023/06/08 00:27:47;;;;;;;17.42;11.60;;;10.90;99.90;;;;;;6215248;23;20083;-40
2023/06/08 00:30:13;;;;;;;17.05;9.98;;;11.00;99.90;;;;;;6215028;23;20053;-40
2023/06/08 00:32:40;;;;;;;23.13;11.45;;;11.00;99.90;;;;;;6215005;23;20336;-40
2023/06/08 00:35:06;;;;;;;19.88;11.70;;;10.90;99.90;;;;;;6214779;23;20013;-40
2023/06/08 00:37:31;;;;;;;20.63;12.25;;;11.00;99.90;;;;;;6214242;23;20016;-39
2023/06/08 00:39:57;;;;;;;21.48;12.13;;;11.00;99.90;;;;;;6215250;23;20024;-40
2023/06/08 00:42:23;;;;;;;21.10;12.90;;;11.00;99.90;;;;;;6215386;23;20328;-41
2023/06/08 00:44:48;;;;;;;17.60;12.52;;;11.10;99.90;;;;;;6214592;23;20013;-40
2023/06/08 00:47:15;;;;;;;22.92;11.95;;;11.10;99.90;;;;;;6214801;23;20091;-40
2023/06/08 00:49:41;;;;;;;20.33;12.68;;;11.10;99.90;;;;;;6214937;23;20352;-40
2023/06/08 00:52:08;;;;;;;17.17;11.80;;;11.10;99.90;;;;;;6214577;23;20040;-40
2023/06/08 00:54:34;;;;;;;20.98;11.85;;;11.20;99.90;;;;;;6214744;23;20020;-40
2023/06/08 00:57:03;;;;;;;22.85;11.60;;;11.20;99.90;;;;;;6214660;23;20332;-40
2023/06/08 00:59:31;;;;;;;18.27;11.93;;;11.20;99.90;;;;;;6214256;23;20471;-40
2023/06/08 01:01:57;;;;;;;20.90;12.63;;;11.20;99.90;;;;;;6214896;23;20019;-40
2023/06/08 01:04:26;;;;;;;20.65;12.60;;;11.20;99.90;;;;;;6187085;23;20016;-40
2023/06/08 01:07:14;;;;;;;18.60;11.48;;;11.20;99.90;;;;;;6214655;23;20019;-40
2023/06/08 01:09:48;;;;;;;14.27;8.23;;;11.30;99.90;;;;;;6214377;23;20016;-40
2023/06/08 01:12:26;;;;;;;20.25;11.75;;;11.30;99.90;;;;;;6214188;23;20067;-40
2023/06/08 01:14:59;;;;;;;17.70;10.65;;;11.20;99.90;;;;;;6211040;23;20059;-40
2023/06/08 01:17:32;;;;;;;15.90;10.65;;;11.20;99.90;;;;;;6183882;23;20456;-40
2023/06/08 01:20:10;;;;;;;18.60;12.13;;;11.20;99.90;;;;;;6208852;23;20058;-40
2023/06/08 01:23:10;;;;;;;15.57;10.65;;;11.20;99.90;;;;;;6210337;23;20091;-40
2023/06/08 01:25:36;;;;;;;17.75;11.77;;;11.20;99.90;;;;;;6210774;23;20016;-40
2023/06/08 01:28:13;;;;;;;18.52;11.10;;;11.20;99.90;;;;;;6214771;23;20016;-40
2023/06/08 01:30:43;;;;;;;18.60;11.90;;;11.30;99.90;;;;;;6187541;23;20467;-40
2023/06/08 01:33:12;;;;;;;17.77;10.57;;;11.30;99.90;;;;;;6214400;23;20035;-40
2023/06/08 01:35:38;;;;;;;18.73;10.32;;;11.30;99.90;;;;;;6214505;23;20020;-40
2023/06/08 01:38:26;;;;;;;16.90;11.15;;;11.30;99.90;;;;;;6214628;23;20318;-40
2023/06/08 01:40:56;;;;;;;25.55;12.35;;;11.30;99.90;;;;;;6214977;23;20021;-40
2023/06/08 01:43:24;;;;;;;19.05;11.88;;;11.20;99.90;;;;;;6217869;23;20012;-40
2023/06/08 01:45:56;;;;;;;18.75;12.50;;;11.20;99.90;;;;;;6188630;23;20019;-41
2023/06/08 01:48:24;;;;;;;17.42;10.73;;;11.20;99.90;;;;;;6212522;23;20309;-40
2023/06/08 01:50:51;;;;;;;22.17;11.95;;;11.20;99.90;;;;;;6212292;23;20096;-41
2023/06/08 01:53:17;;;;;;;20.42;11.57;;;11.20;99.90;;;;;;6213371;23;20066;-41
2023/06/08 01:55:43;;;;;;;19.48;12.73;;;11.20;99.90;;;;;;6212837;23;20091;-40
2023/06/08 01:58:08;;;;;;;21.65;12.10;;;11.20;99.90;;;;;;6212286;23;20013;-40
2023/06/08 02:00:34;;;;;;;22.10;11.70;;;11.20;99.90;;;;;;6212652;23;20446;-41
2023/06/08 02:02:59;;;;;;;19.15;10.70;;;11.20;99.90;;;;;;6212512;23;20017;-40
2023/06/08 02:05:25;;;;;;;14.95;8.20;;;11.20;99.90;;;;;;6212323;23;20098;-40
2023/06/08 02:07:51;;;;;;;19.83;11.23;;;11.20;99.90;;;;;;6212324;23;20020;-40
2023/06/08 02:10:17;;;;;;;18.13;10.68;;;11.10;99.90;;;;;;6213995;23;20009;-41
2023/06/08 02:12:42;;;;;;;22.35;12.32;;;11.10;99.90;;;;;;6162921;23;20075;-42
2023/06/08 02:15:08;;;;;;;16.45;11.70;;;11.10;99.90;;;;;;6215129;23;20024;-40
2023/06/08 02:17:35;;;;;;;17.55;11.27;;;11.10;99.90;;;;;;6213614;23;20016;-40
2023/06/08 02:20:05;;;;;;;16.33;10.82;;;11.20;99.90;;;;;;6213566;23;20146;-41
2023/06/08 02:22:32;;;;;;;17.20;11.38;;;11.20;99.90;;;;;;6213531;23;20027;-40
2023/06/08 02:24:58;;;;;;;20.35;10.55;;;11.20;99.90;;;;;;6212254;23;20024;-41
2023/06/08 02:27:23;;;;;;;16.48;10.77;;;11.20;99.90;;;;;;6212673;23;20135;-40
2023/06/08 02:29:49;;;;;;;23.23;11.70;;;11.20;99.90;;;;;;6211658;23;20120;-40
2023/06/08 02:32:15;;;;;;;17.80;11.25;;;11.20;99.90;;;;;;6211727;23;20016;-41
2023/06/08 02:34:41;;;;;;;20.50;11.15;;;11.20;99.90;;;;;;6211905;23;20028;-40
2023/06/08 02:37:07;;;;;;;19.88;11.07;;;11.20;99.90;;;;;;6212414;23;20023;-40
2023/06/08 02:39:32;;;;;;;22.08;10.77;;;11.20;99.90;;;;;;6212637;23;20175;-40
2023/06/08 02:41:58;;;;;;;16.08;9.30;;;11.10;99.90;;;;;;6212493;23;20012;-40
2023/06/08 02:44:24;;;;;;;15.73;9.98;;;11.10;99.90;;;;;;6212446;23;20016;-40
2023/06/08 02:46:50;;;;;;;17.40;9.50;;;11.10;99.90;;;;;;6213138;23;20012;-40
2023/06/08 02:49:15;;;;;;;16.75;9.43;;;11.10;99.90;;;;;;6216261;23;20070;-40
2023/06/08 02:51:42;;;;;;;22.85;10.68;;;11.00;99.90;;;;;;6215957;23;20023;-40
2023/06/08 02:54:07;;;;;;;19.05;9.85;;;11.00;99.90;;;;;;6188860;23;20067;-40
2023/06/08 02:56:33;;;;;;;19.20;9.80;;;11.00;99.90;;;;;;6215407;23;20380;-40
2023/06/08 02:58:59;;;;;;;16.58;8.48;;;11.00;99.90;;;;;;6164046;23;20013;-40
2023/06/08 03:01:30;;;;;;;20.52;10.10;;;11.00;99.90;;;;;;6216123;23;20336;-40
2023/06/08 03:03:56;;;;;;;19.50;10.45;;;10.90;99.90;;;;;;6215628;23;20022;-40
2023/06/08 03:06:22;;;;;;;16.52;9.98;;;10.90;99.90;;;;;;6215597;23;20056;-40
2023/06/08 03:08:55;;;;;;;18.75;9.57;;;10.90;99.90;;;;;;6215970;23;20044;-40
2023/06/08 03:11:22;;;;;;;17.65;10.15;;;10.90;99.90;;;;;;6188725;23;20066;-40
2023/06/08 03:13:48;;;;;;;15.13;8.77;;;10.80;99.90;;;;;;6215169;23;20539;-40
2023/06/08 03:16:14;;;;;;;16.35;9.48;;;10.80;99.90;;;;;;6188503;23;20055;-40
2023/06/08 03:18:41;;;;;;;15.52;10.10;;;10.80;99.90;;;;;;6211803;23;20012;-40
2023/06/08 03:21:12;;;;;;;12.48;7.78;;;10.80;99.90;;;;;;6210831;23;20058;-40
2023/06/08 03:23:38;;;;;;;14.48;9.50;;;10.80;99.90;;;;;;6212107;23;20017;-40
2023/06/08 03:26:04;;;;;;;18.33;10.82;;;10.80;99.90;;;;;;6214348;23;20479;-40
2023/06/08 03:28:30;;;;;;;17.48;10.23;;;10.80;99.90;;;;;;6184910;23;20025;-40
2023/06/08 03:30:56;;;;;;;20.13;10.48;;;10.80;99.90;;;;;;6210589;23;20016;-40
2023/06/08 03:33:22;;;;;;;17.95;11.13;;;10.80;99.90;;;;;;6209658;23;20044;-40
2023/06/08 03:35:50;;;;;;;22.05;10.73;;;10.80;99.90;;;;;;6211270;23;20020;-40
2023/06/08 03:38:16;;;;;;;21.38;12.18;;;10.80;99.90;;;;;;6209792;23;20013;-40
2023/06/08 03:40:41;;;;;;;19.65;11.40;;;10.80;99.90;;;;;;6209503;23;20066;-40
2023/06/08 03:43:07;;;;;;;19.20;11.13;;;10.80;99.90;;;;;;6157236;23;20054;-40
2023/06/08 03:45:32;;;;;;;20.35;11.55;;;10.90;99.90;;;;;;6208886;23;20075;-40
2023/06/08 03:47:58;;;;;;;18.90;11.68;;;10.90;99.90;;;;;;6212082;23;20012;-40
2023/06/08 03:50:24;;;;;;;19.40;11.48;;;10.90;99.90;;;;;;6211491;23;20020;-40
2023/06/08 03:52:49;;;;;;;21.25;12.65;;;10.90;99.90;;;;;;6209905;23;20059;-40
2023/06/08 03:55:16;;;;;;;21.10;12.05;;;11.00;99.90;;;;;;6209607;23;20399;-40
2023/06/08 03:57:42;;;;;;;18.40;12.03;;;11.00;99.90;;;;;;6209709;23;20481;-40
2023/06/08 04:00:11;;;;;;;19.92;12.00;;;11.00;99.90;;;;;;6183077;23;20012;-40
2023/06/08 04:02:38;;;;;;;23.75;12.65;;;11.00;99.90;;;;;;6209482;23;20020;-40
2023/06/08 04:05:06;;;;;;;22.23;12.40;;;11.00;99.90;;;;;;6209122;23;20016;-41
2023/06/08 04:07:34;;;;;;;;;;;11.00;99.90;;;;;;6211237;23;20507;-40
2023/06/08 04:10:01;;;;;;;16.25;12.05;;;11.10;99.90;;;;;;6212262;23;19978;-40
2023/06/08 04:12:27;;;;;;;16.92;11.70;;;11.10;99.90;;;;;;6211915;23;20009;-40
2023/06/08 04:14:52;;;;;;;19.15;11.32;;;11.20;99.90;;;;;;6212100;23;20500;-41
2023/06/08 04:17:18;;;;;;;16.38;10.85;;;11.20;99.90;;;;;;6211260;23;20020;-41
2023/06/08 04:19:44;;;;;;;16.17;11.23;;;11.20;99.90;;;;;;6211418;23;20023;-40
2023/06/08 04:22:10;;;;;;;16.77;10.20;;;11.30;99.90;;;;;;6212096;23;20016;-40
2023/06/08 04:24:38;;;;;;;20.35;11.70;;;11.40;99.90;;;;;;6211391;23;20023;-40
2023/06/08 04:27:05;;;;;;;18.67;10.38;;;11.50;99.90;;;;;;6211065;23;20017;-40
2023/06/08 04:29:31;;;;;;;17.67;10.65;;;11.60;99.90;;;;;;6184831;23;20087;-40
2023/06/08 04:31:57;;;;;;;15.15;10.10;;;11.70;99.90;;;;;;6211847;23;20515;-40
2023/06/08 04:34:23;;;;;;;15.50;9.48;;;11.70;99.90;;;;;;6212440;23;20055;-40
2023/06/08 04:36:49;;;;;;;15.90;9.05;;;11.70;99.90;;;;;;6184818;23;20023;-40
2023/06/08 04:39:15;;;;;;;16.10;9.75;;;;;;;;;;6210166;23;20067;-41
2023/06/08 04:41:44;;;;;;;16.30;9.80;;;12.00;99.90;;;;;;6211662;23;20048;-41
2023/06/08 04:44:13;;;;;;;17.88;9.57;;;12.00;99.90;;;;;;6212114;23;20020;-40
2023/06/08 04:46:42;;;;;;;16.58;10.00;;;12.40;99.90;;;;;;6213893;23;20083;-40
2023/06/08 04:49:08;;;;;;;17.55;9.68;;;12.50;99.90;;;;;;6186021;23;20356;-40
2023/06/08 04:51:39;;;;;;;14.27;9.00;;;12.70;99.90;;;;;;6214602;23;20013;-40
2023/06/08 04:54:13;;;;;;;15.60;8.82;;;13.10;99.90;;;;;;6213221;23;20096;-40
2023/06/08 04:56:41;;;;;;;16.45;9.32;;;13.50;99.90;;;;;;6214028;23;20016;-41
2023/06/08 04:59:10;;;;;;;16.45;8.82;;;13.60;99.90;;;;;;6186402;23;20083;-41
2023/06/08 05:01:36;;;;;;;14.27;8.43;;;14.10;99.90;;;;;;6214035;23;20024;-41
2023/06/08 05:04:07;;;;;;;13.35;8.10;;;;;;;;;;6213527;23;20013;-41
2023/06/08 05:06:33;;;;;;;13.18;7.72;;;;;;;;;;6213552;23;20066;-41
2023/06/08 05:08:58;;;;;;;11.77;7.28;;;15.00;99.90;;;;;;6187071;23;20444;-40
2023/06/08 05:11:24;;;;;;;18.63;8.40;;;15.20;99.90;;;;;;6214121;23;20009;-41
2023/06/08 05:13:50;;;;;;;11.30;7.38;;;;;;;;;;6214144;23;20017;-42
2023/06/08 05:16:16;;;;;;;12.68;8.30;;;;;;;;;;6214334;23;20107;-42
2023/06/08 05:18:42;;;;;;;11.70;6.55;;;15.60;99.90;;;;;;6214344;23;20048;-40
2023/06/08 05:21:07;;;;;;;16.02;8.07;;;15.20;99.90;;;;;;6213554;23;20012;-40
2023/06/08 05:23:34;;;;;;;15.25;7.40;;;15.60;99.90;;;;;;6214114;23;20016;-41
2023/06/08 05:25:59;;;;;;;12.10;7.45;;;15.50;99.90;;;;;;6212610;23;20055;-42
2023/06/08 05:28:25;;;;;;;14.02;6.75;;;15.90;99.90;;;;;;6213553;23;20025;-40
2023/06/08 05:30:51;;;;;;;14.15;8.43;;;16.00;99.90;;;;;;6213327;23;20013;-40
2023/06/08 05:33:20;;;;;;;11.10;7.22;;;16.00;99.90;;;;;;6213658;23;20017;-40
2023/06/08 05:35:45;;;;;;;13.20;7.97;;;16.40;99.90;;;;;;6213855;23;20109;-42
2023/06/08 05:38:11;;;;;;;12.68;7.82;;;16.30;99.90;;;;;;6211979;23;20601;-41
2023/06/08 05:40:37;;;;;;;13.85;8.40;;;;;;;;;;6213984;23;20023;-42
2023/06/08 05:43:02;;;;;;;15.45;9.30;;;17.00;99.90;;;;;;6186119;23;20020;-42
2023/06/08 05:45:28;;;;;;;13.15;9.18;;;17.50;99.90;;;;;;6212665;23;20017;-41
2023/06/08 05:47:54;;;;;;;16.95;10.43;;;17.50;99.90;;;;;;6208427;23;20016;-41
2023/06/08 05:50:20;;;;;;;14.27;9.77;;;17.30;99.90;;;;;;6210498;23;20021;-42
2023/06/08 05:52:45;;;;;;;16.55;10.13;;;17.60;99.90;;;;;;6211535;23;20013;-42
2023/06/08 05:55:11;;;;;;;17.73;9.93;;;17.70;99.90;;;;;;6212860;23;20020;-42
2023/06/08 05:57:37;;;;;;;19.17;10.63;;;17.90;99.90;;;;;;6210898;23;20021;-41
2023/06/08 06:00:05;;;;;;;18.33;9.95;;;17.90;99.90;;;;;;6210920;23;20020;-41
2023/06/08 06:02:31;;;;;;;14.73;10.13;;;18.00;99.90;;;;;;6184280;23;20348;-43
2023/06/08 06:04:57;;;;;;;17.27;10.55;;;17.80;99.90;;;;;;6184271;23;20025;-41
2023/06/08 06:07:23;;;;;;;15.88;9.95;;;17.90;99.90;;;;;;6210299;23;20023;-42
2023/06/08 06:09:48;;;;;;;15.98;10.88;;;17.80;99.90;;;;;;6210328;23;20009;-41
2023/06/08 06:12:14;;;;;;;14.82;10.70;;;17.70;99.90;;;;;;6210803;23;20067;-41
2023/06/08 06:14:41;;;;;;;15.02;10.57;;;18.00;99.90;;;;;;6209899;23;20459;-41
2023/06/08 06:17:09;;;;;;;17.40;10.90;;;18.60;99.90;;;;;;6210285;23;20015;-43
2023/06/08 06:19:39;;;;;;;13.85;9.93;;;18.60;99.90;;;;;;6183624;23;20013;-42
2023/06/08 06:22:06;;;;;;;15.25;11.10;;;18.50;99.90;;;;;;6210596;23;20017;-41
2023/06/08 06:24:32;;;;;;;18.25;11.10;;;19.00;99.90;;;;;;6211903;23;20056;-41
2023/06/08 06:26:58;;;;;;;15.00;9.95;;;19.20;99.90;;;;;;6210593;23;20034;-41
2023/06/08 06:29:24;;;;;;;16.02;9.88;;;19.90;99.90;;;;;;6210861;23;20058;-41
2023/06/08 06:31:50;;;;;;;18.30;8.68;;;19.50;99.90;;;;;;6184620;23;20017;-41
2023/06/08 06:34:16;;;;;;;15.75;9.75;;;19.00;99.90;;;;;;6212225;23;20383;-41
2023/06/08 06:36:41;;;;;;;14.00;9.50;;;19.00;99.90;;;;;;6212510;23;20008;-41
2023/06/08 06:39:07;;;;;;;12.68;9.25;;;19.40;99.90;;;;;;6212220;23;20031;-41
2023/06/08 06:41:33;;;;;;;13.23;8.55;;;19.00;99.90;;;;;;6213030;23;20123;-42
2023/06/08 06:43:58;;;;;;;15.60;8.98;;;18.60;99.90;;;;;;6212299;23;20025;-41
2023/06/08 06:46:25;;;;;;;13.20;7.10;;;18.80;99.90;;;;;;6211845;23;20008;-41
2023/06/08 06:48:51;;;;;;;10.75;7.15;;;19.00;99.90;;;;;;6214549;23;20020;-41
2023/06/08 06:51:17;;;;;;;11.48;7.45;;;19.20;99.90;;;;;;6214172;23;20021;-41
2023/06/08 06:53:43;;;;;;;12.38;6.80;;;18.90;99.90;;;;;;6214874;23;20025;-42
2023/06/08 06:56:08;;;;;;;10.88;6.65;;;18.60;99.90;;;;;;6188568;23;20017;-41
2023/06/08 06:58:34;;;;;;;11.10;6.75;;;18.30;99.90;;;;;;6215019;23;20017;-41
2023/06/08 07:01:01;;;;;;;13.93;7.03;;;18.60;99.90;;;;;;6214603;23;20409;-41
2023/06/08 07:03:27;;;;;;;9.50;5.47;;;18.80;99.90;;;;;;6214980;23;20013;-41
2023/06/08 07:05:58;;;;;;;12.02;6.63;;;19.00;99.90;;;;;;6187722;23;20022;-41
2023/06/08 07:08:25;;;;;;;10.80;7.05;;;19.10;99.90;;;;;;6214412;23;20479;-41
2023/06/08 07:10:51;;;;;;;11.60;5.80;;;18.60;99.90;;;;;;6214137;23;20067;-41
2023/06/08 07:13:17;;;;;;;10.50;5.78;;;18.80;99.90;;;;;;6213356;23;20017;-43
2023/06/08 07:15:42;;;;;;;11.13;6.03;;;18.20;99.90;;;;;;6213510;23;20440;-41
2023/06/08 07:18:08;;;;;;;11.32;6.25;;;18.50;99.90;;;;;;6209552;23;20411;-43
2023/06/08 07:20:34;;;;;;;8.82;4.82;;;18.90;99.90;;;;;;6209928;23;20024;-42
2023/06/08 07:23:00;;;;;;;8.95;6.00;;;18.90;99.90;;;;;;6209686;23;20020;-44
2023/06/08 07:25:25;;;;;;;10.95;5.72;;;18.80;99.90;;;;;;6209629;23;20013;-43
2023/06/08 07:27:51;;;;;;;12.02;5.90;;;;;;;;;;6209574;23;20058;-42
2023/06/08 07:30:17;;;;;;;11.65;5.63;;;18.00;99.90;;;;;;6210580;23;20054;-42
2023/06/08 07:32:45;;;;;;;11.50;5.55;;;17.70;99.90;;;;;;6211287;23;20090;-42
2023/06/08 07:35:11;;;;;;;9.05;5.90;;;17.70;99.90;;;;;;6212673;23;20518;-42
2023/06/08 07:37:37;;;;;;;13.52;6.18;;;18.00;99.90;;;;;;6211883;23;20017;-40
2023/06/08 07:40:11;;;;;;;6.88;4.40;;;18.40;99.90;;;;;;6212499;23;20008;-40
2023/06/08 07:42:37;;;;;;;9.57;5.88;;;18.70;99.90;;;;;;6209841;23;20028;-41
2023/06/08 07:45:03;;;;;;;10.25;5.80;;;18.80;99.90;;;;;;6211265;23;20016;-40
2023/06/08 07:47:29;;;;;;;12.88;6.18;;;18.40;99.90;;;;;;6212889;23;20017;-41
2023/06/08 07:49:55;;;;;;;10.65;5.78;;;18.30;99.90;;;;;;6214903;23;20017;-40
2023/06/08 07:52:21;;;;;;;10.25;6.07;;;18.30;99.90;;;;;;6215383;23;20017;-41
2023/06/08 07:54:46;;;;;;;8.48;5.20;;;18.50;99.90;;;;;;6216584;23;20017;-40
2023/06/08 07:57:13;;;;;;;8.05;5.22;;;18.50;99.90;;;;;;6216030;23;20017;-40
2023/06/08 07:59:39;;;;;;;9.98;6.20;;;18.40;99.90;;;;;;6213664;23;20044;-40
2023/06/08 08:02:08;;;;;;;11.82;5.45;;;18.20;99.90;;;;;;6214580;23;20008;-40
2023/06/08 08:04:33;;;;;;;13.40;6.32;;;18.20;99.90;;;;;;6184619;23;20032;-41
2023/06/08 08:06:59;;;;;;;10.25;5.60;;;18.40;99.90;;;;;;6212705;23;20348;-40
2023/06/08 08:09:25;;;;;;;8.82;6.22;;;18.70;99.90;;;;;;6211129;23;20451;-40
2023/06/08 08:11:50;;;;;;;11.52;5.95;;;18.60;99.90;;;;;;6209095;23;20013;-41
2023/06/08 08:14:16;;;;;;;13.20;6.32;;;18.70;99.90;;;;;;6211326;23;20452;-40
2023/06/08 08:16:41;;;;;;;8.10;5.50;;;18.50;99.90;;;;;;6211620;23;20055;-41
2023/06/08 08:19:07;;;;;;;12.07;6.40;;;18.40;99.90;;;;;;6210668;23;20058;-41
2023/06/08 08:21:33;;;;;;;12.45;5.90;;;18.20;99.90;;;;;;6213052;23;20062;-40
2023/06/08 08:23:59;;;;;;;11.65;6.20;;;18.00;99.90;;;;;;6213861;23;20035;-41
2023/06/08 08:26:25;;;;;;;12.25;5.88;;;18.00;99.90;;;;;;6213933;23;20016;-40
2023/06/08 08:28:51;;;;;;;11.05;6.30;;;17.90;99.90;;;;;;6210666;23;20031;-41
2023/06/08 08:31:16;;;;;;;9.98;5.97;;;17.80;99.90;;;;;;6212734;23;20016;-41
2023/06/08 08:33:43;;;;;;;11.07;5.82;;;18.00;99.90;;;;;;6212127;23;20020;-41
2023/06/08 08:36:08;;;;;;;10.68;5.93;;;18.20;99.90;;;;;;6184893;23;20452;-40
2023/06/08 08:38:34;;;;;;;11.82;6.22;;;18.40;99.90;;;;;;6184383;23;20024;-40
2023/06/08 08:41:08;;;;;;;11.90;6.55;;;18.50;99.90;;;;;;6209737;23;20078;-41
2023/06/08 08:43:58;;;;;;;13.60;5.82;;;18.80;99.90;;;;;;6210467;23;20456;-40
2023/06/08 08:46:23;;;;;;;11.73;6.05;;;19.30;99.90;;;;;;6209186;23;20387;-41
2023/06/08 08:48:51;;;;;;;11.35;5.68;;;19.30;99.90;;;;;;6211236;23;20039;-40
2023/06/08 08:51:18;;;;;;;12.77;6.47;;;19.50;99.90;;;;;;6211115;23;20075;-41
2023/06/08 08:53:49;;;;;;;11.02;5.88;;;19.50;99.90;;;;;;6212568;23;20340;-41
2023/06/08 08:56:21;;;;;;;10.15;6.25;;;19.50;99.90;;;;;;6212203;23;20066;-41
2023/06/08 08:58:48;;;;;;;13.70;6.30;;;19.40;99.90;;;;;;6210946;23;20086;-40
2023/06/08 09:01:14;;;;;;;10.77;6.65;;;19.30;99.90;;;;;;6212354;23;20012;-40
2023/06/08 09:03:40;;;;;;;11.27;6.20;;;19.20;99.90;;;;;;6212133;23;20375;-41
2023/06/08 09:06:06;;;;;;;10.43;5.70;;;19.10;99.90;;;;;;6210847;23;20016;-40
2023/06/08 09:08:32;;;;;;;10.60;6.03;;;19.20;99.90;;;;;;6211851;23;20013;-41
2023/06/08 09:11:06;;;;;;;11.20;5.68;;;19.60;99.90;;;;;;6212416;23;20471;-40
2023/06/08 09:13:33;;;;;;;11.00;5.63;;;20.00;99.90;;;;;;6212976;23;20087;-41
2023/06/08 09:16:14;;;;;;;12.55;6.00;;;19.70;99.90;;;;;;6211824;23;20024;-40
2023/06/08 09:18:41;;;;;;;10.85;5.72;;;19.70;99.90;;;;;;6184007;23;20023;-43
2023/06/08 09:21:23;;;;;;;9.63;5.63;;;19.90;99.90;;;;;;6211167;23;20452;-41
2023/06/08 09:24:16;;;;;;;8.82;5.50;;;19.90;99.90;;;;;;6211452;23;20039;-40
2023/06/08 09:26:59;;;;;;;10.07;5.22;;;19.90;99.90;;;;;;6211795;23;20397;-41
2023/06/08 09:29:34;;;;;;;10.70;5.25;;;20.30;99.90;;;;;;6210872;23;20091;-42
2023/06/08 09:32:03;;;;;;;8.35;4.50;;;20.40;99.90;;;;;;6211589;23;20016;-41
2023/06/08 09:34:30;;;;;;;9.80;4.80;;;20.50;99.90;;;;;;6211466;23;20478;-41
2023/06/08 09:37:10;;;;;;;7.50;4.80;;;20.70;99.90;;;;;;6210640;23;20514;-41
2023/06/08 09:39:43;;;;;;;9.13;4.65;;;20.70;99.90;;;;;;6185771;23;20021;-42
2023/06/08 09:42:09;;;;;;;10.82;4.88;;;20.70;99.90;;;;;;6184551;23;20032;-41
2023/06/08 09:44:35;;;;;;;8.25;4.05;;;21.20;99.90;;;;;;6210454;23;20016;-42
2023/06/08 09:47:27;;;;;;;6.57;4.35;;;21.20;99.90;;;;;;6211138;23;20457;-42
2023/06/08 09:49:54;;;;;;;12.98;4.40;;;21.60;99.90;;;;;;6206092;23;20158;-42
2023/06/08 09:52:22;;;;;;;11.00;4.10;;;21.80;99.90;;;;;;6214744;23;20016;-41
2023/06/08 09:54:48;;;;;;;7.38;4.18;;;21.50;99.90;;;;;;6216080;23;20020;-42
2023/06/08 09:57:20;;;;;;;7.30;4.70;;;21.20;99.90;;;;;;6213942;23;20012;-41
2023/06/08 09:59:47;;;;;;;8.63;4.55;;;21.10;99.90;;;;;;6213902;23;20417;-41
2023/06/08 10:02:30;;;;;;;8.30;4.18;;;21.10;99.90;;;;;;6211063;23;20043;-42
2023/06/08 10:05:01;;;;;;;8.05;4.28;;;21.20;99.90;;;;;;6213699;23;20333;-41
2023/06/08 10:07:29;;;;;;;9.80;4.45;;;21.10;99.90;;;;;;6214846;23;20009;-43
2023/06/08 10:10:04;;;;;;;9.45;4.18;;;21.50;99.90;;;;;;6213757;23;20432;-42
2023/06/08 10:12:30;;;;;;;10.18;4.22;;;21.50;99.90;;;;;;6213601;23;20008;-41
2023/06/08 10:14:57;;;;;;;7.38;3.88;;;21.90;99.90;;;;;;6215551;23;20016;-42
2023/06/08 10:17:24;;;;;;;10.00;4.35;;;22.30;99.90;;;;;;6215170;23;20372;-44
2023/06/08 10:19:50;;;;;;;8.40;4.20;;;22.90;99.90;;;;;;6212274;23;20009;-41
2023/06/08 10:22:17;;;;;;;9.68;4.38;;;23.10;99.90;;;;;;6214708;23;20443;-41
2023/06/08 10:24:45;;;;;;;7.35;4.25;;;23.30;99.90;;;;;;6213849;23;20016;-43
2023/06/08 10:27:26;;;;;;;8.60;4.57;;;23.20;99.90;;;;;;6214955;23;20019;-42
2023/06/08 10:30:00;;;;;;;9.88;4.03;;;23.30;99.90;;;;;;6214187;23;20066;-42
2023/06/08 10:32:38;;;;;;;9.05;4.03;;;23.20;99.90;;;;;;6214405;23;20452;-47
2023/06/08 10:35:06;;;;;;;7.53;4.00;;;23.10;99.90;;;;;;6187109;23;20040;-46
2023/06/08 10:37:35;;;;;;;8.68;4.15;;;22.70;99.90;;;;;;6188447;23;20017;-46
2023/06/08 10:40:08;;;;;;;7.47;3.65;;;22.30;99.90;;;;;;6213738;23;20309;-48
2023/06/08 10:42:34;;;;;;;8.45;4.28;;;22.20;99.90;;;;;;6214645;23;20016;-48
2023/06/08 10:45:02;;;;;;;11.15;4.05;;;22.10;99.90;;;;;;6211972;23;20092;-47
2023/06/08 10:47:31;;;;;;;9.23;3.95;;;22.10;99.90;;;;;;6216002;23;20087;-45
2023/06/08 10:50:06;;;;;;;9.50;3.95;;;22.00;99.90;;;;;;6212880;23;20016;-45
2023/06/08 10:52:45;;;;;;;6.68;3.78;;;22.40;99.90;;;;;;6215619;23;20008;-46
2023/06/08 10:55:13;;;;;;;7.60;4.03;;;22.60;99.90;;;;;;6216611;23;20507;-44
2023/06/08 10:57:41;;;;;;;9.30;4.40;;;22.80;99.90;;;;;;6216892;23;20012;-45
2023/06/08 11:00:32;;;;;;;9.20;4.15;;;22.90;99.90;;;;;;6216769;23;20047;-46
2023/06/08 11:03:08;;;;;;;10.90;4.30;;;23.00;99.90;;;;;;6216090;23;20034;-45
2023/06/08 11:05:35;;;;;;;7.32;3.85;;;22.90;99.90;;;;;;6216152;23;20013;-45
2023/06/08 11:08:01;;;;;;;7.68;4.15;;;23.10;99.90;;;;;;6216194;23;20040;-45
2023/06/08 11:10:28;;;;;;;10.38;4.50;;;23.10;99.90;;;;;;6214966;23;20012;-46
2023/06/08 11:12:54;;;;;;;8.70;4.33;;;23.20;99.90;;;;;;6187873;23;20016;-55
2023/06/08 11:15:21;;;;;;;8.50;3.90;;;23.20;99.70;;;;;;6216248;23;20525;-56
2023/06/08 11:17:56;;;;;;;6.80;4.00;;;23.50;99.90;;;;;;6216657;23;20322;-54
2023/06/08 11:20:26;;;;;;;8.65;4.32;;;23.70;99.90;;;;;;6215164;23;20013;-55
2023/06/08 11:22:52;;;;;;;7.80;4.10;;;23.50;99.90;;;;;;6216181;23;20063;-57
2023/06/08 11:25:19;;;;;;;8.60;4.07;;;23.60;99.90;;;;;;6216359;23;20016;-56
2023/06/08 11:27:45;;;;;;;;;;;23.70;99.90;;;;;;6215313;23;20027;-56
2023/06/08 11:30:17;;;;;;;7.60;3.53;;;23.40;99.50;;;;;;6216713;23;19916;-57
2023/06/08 11:32:48;;;;;;;9.68;3.70;;;23.10;99.80;;;;;;6216618;23;20017;-54
2023/06/08 11:35:14;;;;;;;7.70;4.10;;;23.30;99.90;;;;;;6216001;23;20013;-55
2023/06/08 11:37:43;;;;;;;8.75;4.63;;;23.30;99.70;;;;;;6215559;23;20112;-56
2023/06/08 11:40:10;;;;;;;10.35;4.38;;;23.60;99.90;;;;;;6215647;23;20079;-54
2023/06/08 11:42:40;;;;;;;;;;;24.40;99.90;;;;;;6216526;23;20393;-55
2023/06/08 11:45:07;;;;;;;8.32;4.47;;;24.70;99.90;;;;;;6216397;23;19916;-53
2023/06/08 11:47:34;;;;;;;9.30;4.45;;;24.60;99.90;;;;;;6216026;23;20448;-55
2023/06/08 11:50:02;;;;;;;6.35;4.07;;;24.70;99.30;;;;;;6216355;23;20017;-54
2023/06/08 11:52:30;;;;;;;10.25;3.70;;;24.70;99.20;;;;;;6216336;23;20085;-57
2023/06/08 11:54:59;;;;;;;8.20;4.00;;;24.70;99.50;;;;;;6215742;23;20016;-57
2023/06/08 11:57:50;;;;;;;9.27;4.43;;;25.30;99.60;;;;;;6215806;23;20091;-57
2023/06/08 12:00:26;;;;;;;6.88;4.03;;;25.10;98.90;;;;;;6216451;23;20333;-56
2023/06/08 12:02:52;;;;;;;10.25;4.45;;;25.20;99.40;;;;;;6188202;23;20028;-53
2023/06/08 12:05:26;;;;;;;9.43;4.10;;;25.20;99.00;;;;;;6215156;23;20042;-57
2023/06/08 12:08:00;;;;;;;7.75;4.15;;;25.00;98.70;;;;;;6216190;23;20070;-56
2023/06/08 12:10:42;;;;;;;10.18;3.97;;;25.20;98.70;;;;;;6215437;23;20008;-57
2023/06/08 12:13:11;;;;;;;6.40;4.10;;;25.10;99.00;;;;;;6211478;23;20013;-58
2023/06/08 12:15:40;;;;;;;6.90;3.72;;;25.00;99.30;;;;;;6214503;23;20695;-53
2023/06/08 12:18:06;;;;;;;9.32;3.83;;;25.00;98.70;;;;;;6215188;23;20048;-55
2023/06/08 12:20:35;;;;;;;10.70;4.38;;;24.90;98.90;;;;;;6216606;23;20020;-56
2023/06/08 12:23:01;;;;;;;11.07;4.65;;;24.80;98.90;;;;;;6212969;23;20340;-56
2023/06/08 12:25:27;;;;;;;6.95;4.32;;;24.90;99.10;;;;;;6212837;23;20012;-56
2023/06/08 12:27:54;;;;;;;10.98;4.50;;;25.20;98.90;;;;;;6212924;23;20328;-57
2023/06/08 12:30:20;;;;;;;9.18;4.00;;;25.20;98.70;;;;;;6213665;23;20012;-58
2023/06/08 12:32:46;;;;;;;7.75;4.28;;;25.00;97.80;;;;;;6215592;23;20379;-56
2023/06/08 12:35:11;;;;;;;10.07;4.32;;;25.10;98.60;;;;;;6213942;23;20017;-56
2023/06/08 12:37:37;;;;;;;8.95;4.15;;;25.20;98.60;;;;;;6212781;23;20025;-57
2023/06/08 12:40:06;;;;;;;11.63;5.00;;;25.20;97.90;;;;;;6213481;23;20009;-57
2023/06/08 12:42:31;;;;;;;9.77;4.45;;;25.10;97.80;;;;;;6213564;23;20020;-55